createdAt,value
2024-05-09T00:00:39.896Z,12.71
2024-05-09T00:03:08.989Z,12.76
2024-05-09T00:05:37.400Z,12.69
2024-05-09T00:08:04.681Z,12.62
2024-05-09T00:10:36.535Z,12.60
2024-05-09T00:13:06.158Z,12.48
2024-05-09T00:15:33.955Z,12.56
2024-05-09T00:18:01.742Z,12.45
2024-05-09T00:20:36.791Z,12.51
2024-05-09T00:23:07.560Z,12.49
2024-05-09T00:25:35.286Z,12.57
2024-05-09T00:28:02.664Z,12.48
2024-05-09T00:30:34.453Z,12.50
2024-05-09T00:33:08.437Z,12.67
2024-05-09T00:35:36.842Z,12.72
2024-05-09T00:38:04.494Z,12.67
2024-05-09T00:40:39.984Z,12.70
2024-05-09T00:43:09.976Z,12.70
2024-05-09T00:45:36.980Z,12.36
2024-05-09T00:48:07.475Z,12.18
2024-05-09T00:50:38.032Z,12.09
2024-05-09T00:53:11.383Z,12.14
2024-05-09T00:55:39.187Z,12.28
2024-05-09T00:58:09.101Z,12.28
2024-05-09T01:00:39.733Z,12.30
2024-05-09T01:03:10.635Z,12.31
2024-05-09T01:05:39.904Z,12.30
2024-05-09T01:08:08.053Z,12.05
2024-05-09T01:10:36.296Z,11.91
2024-05-09T01:13:04.415Z,11.73
2024-05-09T01:15:31.422Z,11.64
2024-05-09T01:18:00.158Z,11.74
2024-05-09T01:20:36.812Z,11.74
2024-05-09T01:23:09.644Z,11.82
2024-05-09T01:25:37.143Z,11.51
2024-05-09T01:28:04.157Z,11.36
2024-05-09T01:30:35.401Z,11.42
2024-05-09T01:33:09.628Z,11.47
2024-05-09T01:35:38.961Z,11.54
2024-05-09T01:38:06.618Z,11.40
2024-05-09T01:40:38.534Z,10.78
2024-05-09T01:43:11.210Z,11.04
2024-05-09T01:45:39.711Z,11.21
2024-05-09T01:48:08.030Z,11.09
2024-05-09T01:50:39.631Z,11.12
2024-05-09T01:53:14.908Z,11.23
2024-05-09T01:55:42.468Z,11.19
2024-05-09T01:58:09.755Z,11.11
2024-05-09T02:00:40.869Z,11.10
2024-05-09T02:03:15.299Z,10.98
2024-05-09T02:05:49.718Z,10.52
2024-05-09T02:08:21.103Z,10.81
2024-05-09T02:10:49.494Z,10.84
2024-05-09T02:13:16.927Z,10.91
2024-05-09T02:15:44.321Z,10.68
2024-05-09T02:18:11.708Z,10.18
2024-05-09T02:20:41.154Z,10.51
2024-05-09T02:23:08.641Z,10.39
2024-05-09T02:25:36.010Z,10.54
2024-05-09T02:28:03.162Z,10.68
2024-05-09T02:30:38.650Z,10.48
2024-05-09T02:33:10.170Z,10.65
2024-05-09T02:35:38.815Z,10.64
2024-05-09T02:38:05.767Z,9.97
2024-05-09T02:40:37.015Z,10.05
2024-05-09T02:43:06.822Z,10.17
2024-05-09T02:45:33.770Z,9.70
2024-05-09T02:48:01.467Z,9.94
2024-05-09T02:50:37.014Z,10.30
2024-05-09T02:53:10.791Z,10.59
2024-05-09T02:55:38.848Z,10.23
2024-05-09T02:58:09.095Z,9.90
2024-05-09T03:00:39.939Z,9.91
2024-05-09T03:03:10.777Z,10.10
2024-05-09T03:05:40.074Z,9.97
2024-05-09T03:08:07.337Z,10.07
2024-05-09T03:10:36.761Z,10.19
2024-05-09T03:13:09.153Z,10.20
2024-05-09T03:15:36.325Z,9.68
2024-05-09T03:18:04.915Z,9.60
2024-05-09T03:20:34.974Z,9.80
2024-05-09T03:23:03.864Z,9.98
2024-05-09T03:25:31.052Z,10.01
2024-05-09T03:27:57.788Z,9.72
2024-05-09T03:30:38.217Z,9.50
2024-05-09T03:33:15.280Z,9.85
2024-05-09T03:35:45.871Z,9.90
2024-05-09T03:38:12.731Z,10.05
2024-05-09T03:40:47.049Z,10.14
2024-05-09T03:43:14.528Z,10.05
2024-05-09T03:45:42.667Z,10.10
2024-05-09T03:48:09.651Z,10.20
2024-05-09T03:50:37.319Z,9.89
2024-05-09T03:53:05.229Z,9.92
2024-05-09T03:55:32.313Z,9.85
2024-05-09T03:57:59.376Z,9.82
2024-05-09T04:00:34.625Z,10.09
2024-05-09T04:03:10.914Z,10.19
2024-05-09T04:05:43.876Z,10.19
2024-05-09T04:08:12.691Z,10.25
2024-05-09T04:10:41.495Z,10.30
2024-05-09T04:13:09.317Z,10.34
2024-05-09T04:15:36.024Z,10.29
2024-05-09T04:18:03.182Z,10.32
2024-05-09T04:20:37.581Z,10.39
2024-05-09T04:23:08.755Z,10.35
2024-05-09T04:25:36.806Z,10.46
2024-05-09T04:28:03.693Z,10.36
2024-05-09T04:30:37.136Z,9.91
2024-05-09T04:33:08.626Z,10.27
2024-05-09T04:35:37.749Z,10.23
2024-05-09T04:38:05.560Z,10.43
2024-05-09T04:40:35.676Z,10.49
2024-05-09T04:43:13.579Z,10.45
2024-05-09T04:45:40.691Z,10.26
2024-05-09T04:48:08.108Z,10.34
2024-05-09T04:50:38.318Z,10.25
2024-05-09T04:53:08.362Z,10.44
2024-05-09T04:55:36.601Z,10.40
2024-05-09T04:58:03.422Z,10.41
2024-05-09T05:00:35.982Z,10.61
2024-05-09T05:03:08.473Z,10.37
2024-05-09T05:05:41.142Z,10.38
2024-05-09T05:08:15.377Z,10.35
2024-05-09T05:10:43.408Z,10.49
2024-05-09T05:13:20.214Z,10.75
2024-05-09T05:15:58.402Z,10.89
2024-05-09T05:18:28.676Z,11.08
2024-05-09T05:20:56.174Z,11.29
2024-05-09T05:23:23.938Z,11.35
2024-05-09T05:25:54.415Z,11.49
2024-05-09T05:28:21.712Z,11.44
2024-05-09T05:30:48.529Z,11.47
2024-05-09T05:33:18.735Z,11.50
2024-05-09T05:35:46.059Z,11.78
2024-05-09T05:38:12.980Z,11.95
2024-05-09T05:40:40.769Z,12.01
2024-05-09T05:43:10.443Z,11.65
2024-05-09T05:45:37.883Z,11.74
2024-05-09T05:48:06.366Z,11.92
2024-05-09T05:50:36.920Z,12.20
2024-05-09T05:53:09.336Z,12.38
2024-05-09T05:55:37.487Z,12.45
2024-05-09T05:58:04.447Z,12.63
2024-05-09T06:00:38.268Z,12.48
2024-05-09T06:03:10.634Z,12.47
2024-05-09T06:05:43.190Z,12.60
2024-05-09T06:08:10.370Z,12.07
2024-05-09T06:10:39.913Z,12.41
2024-05-09T06:13:12.088Z,12.45
2024-05-09T06:15:40.290Z,12.40
2024-05-09T06:18:08.742Z,12.64
2024-05-09T06:20:37.975Z,12.48
2024-05-09T06:23:06.882Z,12.31
2024-05-09T06:25:36.932Z,12.62
2024-05-09T06:28:04.247Z,12.57
2024-05-09T06:30:38.726Z,12.80
2024-05-09T06:33:11.276Z,13.10
2024-05-09T06:35:40.099Z,13.06
2024-05-09T06:38:09.453Z,13.18
2024-05-09T06:40:39.935Z,13.12
2024-05-09T06:43:12.863Z,13.09
2024-05-09T06:45:40.003Z,13.26
2024-05-09T06:48:08.916Z,13.39
2024-05-09T06:50:38.243Z,13.63
2024-05-09T06:53:06.855Z,13.59
2024-05-09T06:55:33.626Z,13.87
2024-05-09T06:58:00.540Z,13.99
2024-05-09T07:00:35.304Z,13.99
2024-05-09T07:03:18.156Z,14.28
2024-05-09T07:05:47.933Z,14.07
2024-05-09T07:08:16.219Z,14.24
2024-05-09T07:10:43.309Z,14.37
2024-05-09T07:13:13.912Z,14.14
2024-05-09T07:15:41.910Z,14.15
2024-05-09T07:18:15.524Z,14.41
2024-05-09T07:20:43.076Z,14.39
2024-05-09T07:23:10.814Z,14.45
2024-05-09T07:25:38.857Z,14.51
2024-05-09T07:28:09.745Z,14.69
2024-05-09T07:30:36.439Z,14.66
2024-05-09T07:33:03.845Z,14.82
2024-05-09T07:35:31.138Z,14.92
2024-05-09T07:37:58.461Z,15.05
2024-05-09T07:40:32.957Z,14.87
2024-05-09T07:43:13.112Z,14.94
2024-05-09T07:45:49.574Z,15.12
2024-05-09T07:52:38.482Z,15.24
2024-05-09T07:53:46.424Z,15.19
2024-05-09T07:56:16.831Z,15.57
2024-05-09T07:58:45.629Z,15.76
2024-05-09T08:01:12.574Z,15.67
2024-05-09T08:03:39.610Z,15.95
2024-05-09T08:06:06.402Z,15.89
2024-05-09T08:08:33.160Z,16.10
2024-05-09T08:10:59.928Z,16.12
2024-05-09T08:13:26.642Z,16.28
2024-05-09T08:15:53.419Z,16.31
2024-05-09T08:18:20.295Z,16.28
2024-05-09T08:20:48.929Z,16.35
2024-05-09T08:23:15.894Z,16.72
2024-05-09T08:25:42.613Z,16.64
2024-05-09T08:28:11.431Z,16.19
2024-05-09T08:30:38.748Z,16.44
2024-05-09T08:33:06.961Z,16.65
2024-05-09T08:35:35.156Z,16.68
2024-05-09T08:38:06.645Z,16.88
2024-05-09T08:40:36.381Z,17.05
2024-05-09T08:43:10.847Z,16.94
2024-05-09T08:45:43.153Z,16.85
2024-05-09T08:48:12.864Z,17.18
2024-05-09T08:50:43.104Z,17.22
2024-05-09T08:53:10.127Z,17.04
2024-05-09T08:55:41.564Z,17.17
2024-05-09T08:58:17.920Z,17.09
2024-05-09T09:00:46.394Z,17.51
2024-05-09T09:03:19.543Z,17.52
2024-05-09T09:05:54.806Z,17.59
2024-05-09T09:08:22.587Z,17.47
2024-05-09T09:10:52.886Z,17.81
2024-05-09T09:13:20.154Z,17.86
2024-05-09T09:15:50.558Z,18.02
2024-05-09T09:18:18.461Z,18.26
2024-05-09T09:20:45.624Z,18.13
2024-05-09T09:23:12.475Z,18.16
2024-05-09T09:25:40.615Z,18.50
2024-05-09T09:28:08.294Z,18.72
2024-05-09T09:30:38.905Z,18.37
2024-05-09T09:33:06.823Z,18.49
2024-05-09T09:35:36.100Z,19.13
2024-05-09T09:38:04.494Z,18.89
2024-05-09T09:40:37.574Z,18.95
2024-05-09T09:43:19.237Z,19.27
2024-05-09T09:45:50.057Z,19.06
2024-05-09T09:48:17.375Z,19.72
2024-05-09T09:50:45.305Z,20.18
2024-05-09T09:53:12.816Z,20.33
2024-05-09T09:55:40.284Z,20.21
2024-05-09T09:58:09.699Z,19.87
2024-05-09T10:00:39.141Z,19.94
2024-05-09T10:03:05.978Z,20.08
2024-05-09T10:05:33.985Z,19.57
2024-05-09T10:08:06.556Z,19.61
2024-05-09T10:10:34.920Z,19.43
2024-05-09T10:13:06.617Z,20.19
2024-05-09T10:15:48.460Z,20.65
2024-05-09T10:18:15.695Z,21.08
2024-05-09T10:20:46.563Z,20.31
2024-05-09T10:23:29.912Z,20.68
2024-05-09T10:25:59.597Z,21.38
2024-05-09T10:28:33.481Z,21.74
2024-05-09T10:31:18.661Z,21.59
2024-05-09T10:33:51.919Z,21.75
2024-05-09T10:36:24.355Z,22.19
2024-05-09T10:38:53.299Z,21.49
2024-05-09T10:41:21.366Z,22.10
2024-05-09T10:43:49.253Z,20.82
2024-05-09T10:46:16.717Z,20.76
2024-05-09T10:48:44.300Z,21.08
2024-05-09T10:51:11.714Z,20.68
2024-05-09T10:53:46.653Z,19.90
2024-05-09T10:56:14.567Z,20.65
2024-05-09T10:58:41.515Z,20.77
2024-05-09T11:01:09.807Z,20.71
2024-05-09T11:03:37.924Z,21.17
2024-05-09T11:06:06.336Z,22.00
2024-05-09T11:08:34.832Z,22.54
2024-05-09T11:11:06.508Z,22.50
2024-05-09T11:13:35.130Z,21.85
2024-05-09T11:16:02.954Z,21.45
2024-05-09T11:21:03.214Z,22.78
2024-05-09T11:23:30.693Z,23.18
2024-05-09T11:25:58.804Z,22.26
2024-05-09T11:28:28.521Z,22.89
2024-05-09T11:31:08.564Z,21.97
2024-05-09T11:33:38.771Z,22.96
2024-05-09T11:36:06.710Z,22.69
2024-05-09T11:38:33.783Z,22.74
2024-05-09T11:41:00.591Z,21.24
2024-05-09T11:43:27.466Z,21.75
2024-05-09T11:45:55.040Z,21.74
2024-05-09T11:48:21.886Z,21.63
2024-05-09T11:50:48.773Z,22.17
2024-05-09T11:53:15.503Z,22.07
2024-05-09T11:55:42.196Z,23.18
2024-05-09T11:58:09.319Z,22.49
2024-05-09T12:00:37.503Z,22.35
2024-05-09T12:03:05.887Z,21.81
2024-05-09T12:05:34.143Z,22.48
2024-05-09T12:08:01.704Z,23.24
2024-05-09T12:10:33.410Z,23.79
2024-05-09T12:13:04.183Z,23.50
2024-05-09T12:15:32.713Z,23.77
2024-05-09T12:18:02.752Z,23.08
2024-05-09T12:20:36.744Z,22.34
2024-05-09T12:23:06.632Z,21.44
2024-05-09T12:25:33.610Z,21.44
2024-05-09T12:28:00.779Z,21.57
2024-05-09T12:30:36.113Z,21.32
2024-05-09T12:33:08.050Z,21.07
2024-05-09T12:35:35.020Z,21.60
2024-05-09T12:38:02.128Z,21.60
2024-05-09T12:40:35.988Z,21.53
2024-05-09T12:43:07.785Z,22.03
2024-05-09T12:45:35.527Z,21.63
2024-05-09T12:48:08.314Z,21.83
2024-05-09T12:50:35.770Z,21.38
2024-05-09T12:53:05.216Z,21.48
2024-05-09T12:55:40.973Z,21.59
2024-05-09T12:58:16.373Z,21.87
2024-05-09T13:00:44.239Z,22.38
2024-05-09T13:03:11.295Z,22.38
2024-05-09T13:05:38.354Z,22.15
2024-05-09T13:08:05.515Z,22.10
2024-05-09T13:10:33.432Z,22.88
2024-05-09T13:13:01.885Z,23.29
2024-05-09T13:15:54.321Z,22.61
2024-05-09T13:18:21.194Z,22.56
2024-05-09T13:20:47.984Z,22.31
2024-05-09T13:23:14.682Z,22.63
2024-05-09T13:25:41.386Z,22.50
2024-05-09T13:30:40.287Z,22.83
2024-05-09T13:33:13.266Z,22.96
2024-05-09T13:35:46.780Z,23.34
2024-05-09T13:38:16.855Z,24.37
2024-05-09T13:40:43.781Z,24.05
2024-05-09T13:43:10.696Z,23.73
2024-05-09T13:45:37.552Z,22.89
2024-05-09T13:48:06.690Z,22.77
2024-05-09T13:50:36.187Z,22.08
2024-05-09T13:53:08.776Z,22.19
2024-05-09T13:55:39.485Z,21.91
2024-05-09T13:58:07.176Z,22.11
2024-05-09T14:00:44.145Z,21.85
2024-05-09T14:03:19.460Z,22.22
2024-05-09T14:05:47.843Z,21.64
2024-05-09T14:08:15.749Z,22.90
2024-05-09T14:10:45.066Z,23.44
2024-05-09T14:13:12.476Z,22.72
2024-05-09T14:15:39.451Z,24.09
2024-05-09T14:18:10.189Z,24.96
2024-05-09T14:20:39.149Z,24.76
2024-05-09T14:23:05.904Z,25.16
2024-05-09T14:25:36.617Z,25.18
2024-05-09T14:28:06.215Z,25.59
2024-05-09T14:30:37.257Z,25.39
2024-05-09T14:33:06.667Z,25.99
2024-05-09T14:35:34.388Z,26.25
2024-05-09T14:38:01.465Z,26.44
2024-05-09T14:40:38.818Z,26.53
2024-05-09T14:43:11.039Z,25.58
2024-05-09T14:45:37.939Z,25.24
2024-05-09T14:48:05.514Z,24.80
2024-05-09T14:50:37.013Z,24.05
2024-05-09T14:53:07.613Z,23.51
2024-05-09T14:55:37.389Z,23.03
2024-05-09T14:58:09.610Z,22.94
2024-05-09T15:00:46.015Z,23.10
2024-05-09T15:03:16.911Z,22.90
2024-05-09T15:05:44.952Z,23.09
2024-05-09T15:08:11.727Z,23.58
2024-05-09T15:10:39.072Z,22.80
2024-05-09T15:13:07.906Z,23.45
2024-05-09T15:15:36.984Z,22.80
2024-05-09T15:18:05.525Z,23.37
2024-05-09T15:20:36.164Z,22.24
2024-05-09T15:23:06.724Z,23.27
2024-05-09T15:25:35.116Z,22.93
2024-05-09T15:28:02.321Z,23.49
2024-05-09T15:30:32.294Z,24.21
2024-05-09T15:33:03.260Z,24.49
2024-05-09T15:35:30.260Z,23.71
2024-05-09T15:37:57.026Z,23.78
2024-05-09T15:40:34.779Z,23.96
2024-05-09T15:43:06.718Z,23.65
2024-05-09T15:45:34.255Z,23.87
2024-05-09T15:48:02.203Z,24.09
2024-05-09T15:50:36.738Z,23.91
2024-05-09T15:53:08.163Z,23.61
2024-05-09T15:55:35.872Z,23.05
2024-05-09T15:58:04.155Z,23.56
2024-05-09T16:00:38.923Z,23.91
2024-05-09T16:03:10.387Z,23.84
2024-05-09T16:05:38.071Z,23.52
2024-05-09T16:08:05.985Z,23.27
2024-05-09T16:10:34.466Z,23.63
2024-05-09T16:13:04.282Z,23.41
2024-05-09T16:15:31.281Z,23.49
2024-05-09T16:17:58.250Z,23.35
2024-05-09T16:20:34.645Z,23.52
2024-05-09T16:23:07.082Z,23.34
2024-05-09T16:25:34.071Z,23.43
2024-05-09T16:28:01.793Z,23.34
2024-05-09T16:30:34.548Z,23.20
2024-05-09T16:33:04.423Z,23.05
2024-05-09T16:35:31.920Z,23.06
2024-05-09T16:37:58.775Z,22.72
2024-05-09T16:40:34.430Z,22.81
2024-05-09T16:43:06.169Z,22.74
2024-05-09T16:45:33.589Z,22.72
2024-05-09T16:48:01.240Z,22.33
2024-05-09T16:50:32.728Z,22.42
2024-05-09T16:53:02.263Z,22.58
2024-05-09T16:55:29.315Z,22.42
2024-05-09T16:57:57.250Z,22.66
2024-05-09T17:00:35.257Z,22.25
2024-05-09T17:03:08.832Z,22.27
2024-05-09T17:05:36.497Z,22.06
2024-05-09T17:08:04.099Z,21.92
2024-05-09T17:10:33.870Z,21.71
2024-05-09T17:13:07.199Z,21.94
2024-05-09T17:15:36.660Z,21.75
2024-05-09T17:18:05.151Z,21.40
2024-05-09T17:20:35.297Z,21.29
2024-05-09T17:23:06.097Z,21.65
2024-05-09T17:25:33.944Z,21.71
2024-05-09T17:28:06.824Z,21.74
2024-05-09T17:30:37.526Z,21.81
2024-05-09T17:33:07.647Z,21.41
2024-05-09T17:35:35.978Z,21.23
2024-05-09T17:38:05.425Z,21.57
2024-05-09T17:40:35.862Z,21.63
2024-05-09T17:43:05.714Z,21.66
2024-05-09T17:45:33.599Z,21.44
2024-05-09T17:48:01.530Z,21.39
2024-05-09T17:50:35.125Z,21.50
2024-05-09T17:53:04.556Z,21.34
2024-05-09T17:55:31.554Z,21.15
2024-05-09T17:57:58.571Z,21.26
2024-05-09T18:00:36.374Z,20.94
2024-05-09T18:03:07.566Z,20.90
2024-05-09T18:05:38.477Z,20.89
2024-05-09T18:08:08.460Z,21.01
2024-05-09T18:10:38.627Z,20.60
2024-05-09T18:13:11.518Z,20.52
2024-05-09T18:15:39.395Z,20.21
2024-05-09T18:18:07.566Z,20.23
2024-05-09T18:20:42.082Z,20.20
2024-05-09T18:23:17.188Z,20.03
2024-05-09T18:25:45.735Z,20.03
2024-05-09T18:28:12.746Z,20.05
2024-05-09T18:30:40.373Z,20.19
2024-05-09T18:33:09.787Z,19.95
2024-05-09T18:35:37.043Z,20.34
2024-05-09T18:38:04.784Z,19.91
2024-05-09T18:40:35.618Z,19.61
2024-05-09T18:43:06.877Z,19.57
2024-05-09T18:45:35.762Z,20.02
2024-05-09T18:48:04.910Z,19.91
2024-05-09T18:50:36.178Z,19.41
2024-05-09T18:53:06.439Z,19.75
2024-05-09T18:55:33.565Z,19.53
2024-05-09T18:58:00.590Z,19.70
2024-05-09T19:00:34.352Z,18.89
2024-05-09T19:03:06.181Z,18.93
2024-05-09T19:05:35.563Z,18.81
2024-05-09T19:08:03.361Z,18.66
2024-05-09T19:10:34.350Z,18.67
2024-05-09T19:13:06.685Z,18.49
2024-05-09T19:15:38.011Z,18.56
2024-05-09T19:18:05.239Z,18.68
2024-05-09T19:20:34.914Z,18.59
2024-05-09T19:23:04.090Z,18.62
2024-05-09T19:25:31.055Z,18.22
2024-05-09T19:27:58.124Z,18.43
2024-05-09T19:30:34.878Z,18.03
2024-05-09T19:33:07.097Z,18.17
2024-05-09T19:35:34.078Z,18.21
2024-05-09T19:38:01.127Z,18.40
2024-05-09T19:40:32.100Z,18.38
2024-05-09T19:43:02.350Z,18.38
2024-05-09T19:45:29.777Z,18.30
2024-05-09T19:47:57.258Z,17.80
2024-05-09T19:50:32.425Z,17.63
2024-05-09T19:53:07.462Z,17.82
2024-05-09T19:55:35.084Z,17.89
2024-05-09T19:58:05.170Z,17.54
2024-05-09T20:00:39.867Z,17.61
2024-05-09T20:03:09.766Z,17.42
2024-05-09T20:05:37.731Z,17.64
2024-05-09T20:08:05.904Z,17.38
2024-05-09T20:10:35.183Z,17.62
2024-05-09T20:13:04.999Z,17.49
2024-05-09T20:15:34.810Z,17.35
2024-05-09T20:18:02.563Z,17.49
2024-05-09T20:20:37.277Z,17.35
2024-05-09T20:23:08.548Z,17.31
2024-05-09T20:25:35.322Z,17.42
2024-05-09T20:28:02.343Z,17.31
2024-05-09T20:30:32.703Z,17.35
2024-05-09T20:33:07.098Z,16.93
2024-05-09T20:35:35.531Z,17.00
2024-05-09T20:38:03.312Z,16.77
2024-05-09T20:40:35.071Z,16.67
2024-05-09T20:43:05.736Z,16.82
2024-05-09T20:45:33.220Z,16.80
2024-05-09T20:48:00.588Z,16.81
2024-05-09T20:50:36.624Z,16.54
2024-05-09T20:53:12.584Z,16.33
2024-05-09T20:55:40.849Z,16.50
2024-05-09T20:58:08.344Z,16.45
2024-05-09T21:00:40.021Z,16.23
2024-05-09T21:03:10.650Z,16.36
2024-05-09T21:05:38.070Z,16.34
2024-05-09T21:08:05.471Z,16.29
2024-05-09T21:10:33.842Z,16.12
2024-05-09T21:13:02.885Z,16.33
2024-05-09T21:15:30.461Z,16.11
2024-05-09T21:17:57.422Z,16.18
2024-05-09T21:20:30.937Z,16.12
2024-05-09T21:22:59.200Z,15.81
2024-05-09T21:25:26.062Z,15.93
2024-05-09T21:27:53.189Z,15.87
2024-05-09T21:30:31.764Z,15.72
2024-05-09T21:33:08.305Z,15.90
2024-05-09T21:35:35.515Z,15.96
2024-05-09T21:38:02.260Z,15.64
2024-05-09T21:40:34.294Z,15.56
2024-05-09T21:43:03.997Z,15.65
2024-05-09T21:45:31.022Z,15.52
2024-05-09T21:47:57.992Z,15.29
2024-05-09T21:50:32.269Z,15.38
2024-05-09T21:53:06.343Z,15.26
2024-05-09T21:55:33.447Z,15.34
2024-05-09T21:58:00.434Z,15.31
2024-05-09T22:00:34.755Z,15.27
2024-05-09T22:03:05.288Z,15.16
2024-05-09T22:05:32.738Z,15.06
2024-05-09T22:07:59.801Z,14.92
2024-05-09T22:10:32.849Z,14.54
2024-05-09T22:13:02.336Z,14.73
2024-05-09T22:15:29.180Z,14.79
2024-05-09T22:17:57.547Z,15.02
2024-05-09T22:20:34.219Z,14.83
2024-05-09T22:23:04.965Z,14.74
2024-05-09T22:25:32.574Z,14.90
2024-05-09T22:28:00.943Z,14.89
2024-05-09T22:30:35.623Z,14.93
2024-05-09T22:33:07.781Z,13.88
2024-05-09T22:35:34.961Z,14.33
2024-05-09T22:38:05.350Z,14.43
2024-05-09T22:40:42.387Z,14.24
2024-05-09T22:43:17.408Z,14.22
2024-05-09T22:45:44.577Z,14.30
2024-05-09T22:48:11.640Z,14.04
2024-05-09T22:50:38.478Z,14.20
2024-05-09T22:53:05.571Z,14.24
2024-05-09T22:55:32.431Z,14.42
2024-05-09T22:57:59.556Z,14.52
2024-05-09T23:00:31.424Z,14.38
2024-05-09T23:03:03.080Z,13.74
2024-05-09T23:05:31.904Z,13.72
2024-05-09T23:07:58.935Z,14.16
2024-05-09T23:10:32.334Z,13.91
2024-05-09T23:13:03.772Z,13.95
2024-05-09T23:15:30.832Z,14.08
2024-05-09T23:17:58.406Z,13.95
2024-05-09T23:20:35.464Z,13.87
2024-05-09T23:23:05.632Z,13.73
2024-05-09T23:25:32.580Z,13.90
2024-05-09T23:27:59.528Z,13.83
2024-05-09T23:30:36.135Z,13.46
2024-05-09T23:33:06.503Z,13.11
2024-05-09T23:35:33.424Z,13.47
2024-05-09T23:38:00.065Z,13.48
2024-05-09T23:40:36.332Z,13.49
2024-05-09T23:43:06.536Z,13.02
2024-05-09T23:45:33.566Z,13.11
2024-05-09T23:48:00.820Z,13.35
2024-05-09T23:50:34.419Z,13.36
2024-05-09T23:53:05.094Z,13.45
2024-05-09T23:55:32.481Z,13.47
2024-05-09T23:57:59.650Z,13.47
